sensor_id;sensor_type;location;lat;lon;timestamp;P1;durP1;ratioP1;P2;durP2;ratioP2
20320;SDS011;10318;47.674;9.052;2023-01-09T00:02:00;6.88;;;4.47;;
20320;SDS011;10318;47.674;9.052;2023-01-09T00:04:26;6.03;;;4.55;;
20320;SDS011;10318;47.674;9.052;2023-01-09T00:06:53;6.85;;;5.90;;
20320;SDS011;10318;47.674;9.052;2023-01-09T00:09:20;7.40;;;5.78;;
20320;SDS011;10318;47.674;9.052;2023-01-09T00:11:47;7.20;;;5.60;;
20320;SDS011;10318;47.674;9.052;2023-01-09T00:14:15;6.15;;;5.38;;
20320;SDS011;10318;47.674;9.052;2023-01-09T00:16:42;6.50;;;5.30;;
20320;SDS011;10318;47.674;9.052;2023-01-09T00:19:09;9.20;;;5.50;;
20320;SDS011;10318;47.674;9.052;2023-01-09T00:21:36;6.30;;;5.10;;
20320;SDS011;10318;47.674;9.052;2023-01-09T00:24:03;7.47;;;5.57;;
20320;SDS011;10318;47.674;9.052;2023-01-09T00:26:29;7.57;;;5.95;;
20320;SDS011;10318;47.674;9.052;2023-01-09T00:28:56;7.63;;;5.53;;
20320;SDS011;10318;47.674;9.052;2023-01-09T00:31:23;7.93;;;5.57;;
20320;SDS011;10318;47.674;9.052;2023-01-09T00:34:00;6.47;;;5.40;;
20320;SDS011;10318;47.674;9.052;2023-01-09T00:36:27;7.63;;;5.35;;
20320;SDS011;10318;47.674;9.052;2023-01-09T00:38:54;6.20;;;5.10;;
20320;SDS011;10318;47.674;9.052;2023-01-09T00:41:26;6.70;;;5.57;;
20320;SDS011;10318;47.674;9.052;2023-01-09T00:43:55;7.22;;;5.80;;
20320;SDS011;10318;47.674;9.052;2023-01-09T00:46:24;6.30;;;5.53;;
20320;SDS011;10318;47.674;9.052;2023-01-09T00:48:53;8.15;;;5.28;;
20320;SDS011;10318;47.674;9.052;2023-01-09T00:51:19;7.43;;;5.70;;
20320;SDS011;10318;47.674;9.052;2023-01-09T00:53:46;5.72;;;4.72;;
20320;SDS011;10318;47.674;9.052;2023-01-09T00:56:15;5.85;;;4.32;;
20320;SDS011;10318;47.674;9.052;2023-01-09T00:58:42;3.55;;;2.60;;
20320;SDS011;10318;47.674;9.052;2023-01-09T01:01:09;1.58;;;1.40;;
20320;SDS011;10318;47.674;9.052;2023-01-09T01:03:36;1.40;;;1.30;;
20320;SDS011;10318;47.674;9.052;2023-01-09T01:06:03;2.55;;;1.90;;
20320;SDS011;10318;47.674;9.052;2023-01-09T01:08:48;3.42;;;2.30;;
20320;SDS011;10318;47.674;9.052;2023-01-09T01:11:15;4.70;;;3.30;;
20320;SDS011;10318;47.674;9.052;2023-01-09T01:13:42;2.33;;;1.80;;
20320;SDS011;10318;47.674;9.052;2023-01-09T01:16:10;2.92;;;1.63;;
20320;SDS011;10318;47.674;9.052;2023-01-09T01:18:38;1.52;;;0.90;;
20320;SDS011;10318;47.674;9.052;2023-01-09T01:21:08;2.45;;;0.80;;
20320;SDS011;10318;47.674;9.052;2023-01-09T01:23:35;1.65;;;1.25;;
20320;SDS011;10318;47.674;9.052;2023-01-09T01:26:03;0.98;;;0.90;;
20320;SDS011;10318;47.674;9.052;2023-01-09T01:28:30;1.80;;;0.88;;
20320;SDS011;10318;47.674;9.052;2023-01-09T01:31:00;1.75;;;0.90;;
20320;SDS011;10318;47.674;9.052;2023-01-09T01:33:27;1.63;;;0.80;;
20320;SDS011;10318;47.674;9.052;2023-01-09T01:36:03;1.35;;;0.82;;
20320;SDS011;10318;47.674;9.052;2023-01-09T01:38:31;1.23;;;0.80;;
20320;SDS011;10318;47.674;9.052;2023-01-09T01:40:58;0.77;;;0.70;;
20320;SDS011;10318;47.674;9.052;2023-01-09T01:43:25;0.85;;;0.80;;
20320;SDS011;10318;47.674;9.052;2023-01-09T01:45:52;1.60;;;0.70;;
20320;SDS011;10318;47.674;9.052;2023-01-09T01:48:23;0.68;;;0.60;;
20320;SDS011;10318;47.674;9.052;2023-01-09T01:51:00;0.57;;;0.57;;
20320;SDS011;10318;47.674;9.052;2023-01-09T01:56:04;1.75;;;0.70;;
20320;SDS011;10318;47.674;9.052;2023-01-09T01:58:33;2.83;;;0.90;;
20320;SDS011;10318;47.674;9.052;2023-01-09T02:01:01;1.73;;;0.68;;
20320;SDS011;10318;47.674;9.052;2023-01-09T02:03:29;0.68;;;0.60;;
20320;SDS011;10318;47.674;9.052;2023-01-09T02:05:56;4.75;;;0.70;;
20320;SDS011;10318;47.674;9.052;2023-01-09T02:08:22;0.50;;;0.50;;
20320;SDS011;10318;47.674;9.052;2023-01-09T02:10:49;0.73;;;0.60;;
20320;SDS011;10318;47.674;9.052;2023-01-09T02:13:16;0.40;;;0.40;;
20320;SDS011;10318;47.674;9.052;2023-01-09T02:16:00;0.47;;;0.45;;
20320;SDS011;10318;47.674;9.052;2023-01-09T02:21:09;0.65;;;0.52;;
20320;SDS011;10318;47.674;9.052;2023-01-09T02:24:27;0.70;;;0.70;;
20320;SDS011;10318;47.674;9.052;2023-01-09T02:34:13;0.65;;;0.65;;
20320;SDS011;10318;47.674;9.052;2023-01-09T02:41:39;0.52;;;0.50;;
20320;SDS011;10318;47.674;9.052;2023-01-09T02:44:16;0.47;;;0.47;;
20320;SDS011;10318;47.674;9.052;2023-01-09T02:46:43;0.77;;;0.60;;
20320;SDS011;10318;47.674;9.052;2023-01-09T02:49:10;0.60;;;0.40;;
20320;SDS011;10318;47.674;9.052;2023-01-09T02:51:50;0.40;;;0.40;;
20320;SDS011;10318;47.674;9.052;2023-01-09T02:54:32;0.40;;;0.40;;
20320;SDS011;10318;47.674;9.052;2023-01-09T03:05:27;0.22;;;0.22;;
20320;SDS011;10318;47.674;9.052;2023-01-09T03:10:27;1.85;;;0.35;;
20320;SDS011;10318;47.674;9.052;2023-01-09T03:12:56;0.22;;;0.22;;
20320;SDS011;10318;47.674;9.052;2023-01-09T03:15:25;0.25;;;0.25;;
20320;SDS011;10318;47.674;9.052;2023-01-09T03:17:53;0.85;;;0.43;;
20320;SDS011;10318;47.674;9.052;2023-01-09T03:20:21;1.08;;;0.50;;
20320;SDS011;10318;47.674;9.052;2023-01-09T03:22:58;0.50;;;0.30;;
20320;SDS011;10318;47.674;9.052;2023-01-09T03:25:26;3.33;;;0.30;;
20320;SDS011;10318;47.674;9.052;2023-01-09T03:28:00;0.20;;;0.20;;
20320;SDS011;10318;47.674;9.052;2023-01-09T03:30:28;0.40;;;0.30;;
20320;SDS011;10318;47.674;9.052;2023-01-09T03:32:55;2.05;;;0.50;;
20320;SDS011;10318;47.674;9.052;2023-01-09T03:35:22;0.32;;;0.20;;
20320;SDS011;10318;47.674;9.052;2023-01-09T03:37:49;0.45;;;0.30;;
20320;SDS011;10318;47.674;9.052;2023-01-09T03:40:18;1.48;;;0.30;;
20320;SDS011;10318;47.674;9.052;2023-01-09T03:42:45;0.28;;;0.20;;
20320;SDS011;10318;47.674;9.052;2023-01-09T03:45:12;0.20;;;0.20;;
20320;SDS011;10318;47.674;9.052;2023-01-09T03:47:39;0.40;;;0.30;;
20320;SDS011;10318;47.674;9.052;2023-01-09T03:50:05;0.30;;;0.30;;
20320;SDS011;10318;47.674;9.052;2023-01-09T03:52:32;0.30;;;0.30;;
20320;SDS011;10318;47.674;9.052;2023-01-09T03:55:01;1.10;;;0.70;;
20320;SDS011;10318;47.674;9.052;2023-01-09T03:57:28;1.50;;;1.20;;
20320;SDS011;10318;47.674;9.052;2023-01-09T03:59:54;0.60;;;0.47;;
20320;SDS011;10318;47.674;9.052;2023-01-09T04:02:21;0.50;;;0.40;;
20320;SDS011;10318;47.674;9.052;2023-01-09T04:04:48;0.70;;;0.40;;
20320;SDS011;10318;47.674;9.052;2023-01-09T04:07:15;0.40;;;0.40;;
20320;SDS011;10318;47.674;9.052;2023-01-09T04:09:42;1.15;;;0.40;;
20320;SDS011;10318;47.674;9.052;2023-01-09T04:12:09;0.30;;;0.30;;
20320;SDS011;10318;47.674;9.052;2023-01-09T04:14:36;0.32;;;0.32;;
20320;SDS011;10318;47.674;9.052;2023-01-09T04:17:03;0.65;;;0.32;;
20320;SDS011;10318;47.674;9.052;2023-01-09T04:19:30;0.30;;;0.30;;
20320;SDS011;10318;47.674;9.052;2023-01-09T04:21:57;0.68;;;0.30;;
20320;SDS011;10318;47.674;9.052;2023-01-09T04:24:24;0.32;;;0.32;;
20320;SDS011;10318;47.674;9.052;2023-01-09T04:26:50;0.30;;;0.30;;
20320;SDS011;10318;47.674;9.052;2023-01-09T04:29:17;1.15;;;0.30;;
20320;SDS011;10318;47.674;9.052;2023-01-09T04:31:44;0.30;;;0.30;;
20320;SDS011;10318;47.674;9.052;2023-01-09T04:34:11;0.30;;;0.30;;
20320;SDS011;10318;47.674;9.052;2023-01-09T04:36:37;0.30;;;0.30;;
20320;SDS011;10318;47.674;9.052;2023-01-09T04:39:05;0.85;;;0.30;;
20320;SDS011;10318;47.674;9.052;2023-01-09T04:41:31;0.43;;;0.30;;
20320;SDS011;10318;47.674;9.052;2023-01-09T04:44:21;0.55;;;0.30;;
20320;SDS011;10318;47.674;9.052;2023-01-09T04:46:48;0.30;;;0.30;;
20320;SDS011;10318;47.674;9.052;2023-01-09T04:49:14;0.22;;;0.22;;
20320;SDS011;10318;47.674;9.052;2023-01-09T04:51:41;1.02;;;0.30;;
20320;SDS011;10318;47.674;9.052;2023-01-09T04:54:08;0.30;;;0.30;;
20320;SDS011;10318;47.674;9.052;2023-01-09T04:56:35;0.30;;;0.30;;
20320;SDS011;10318;47.674;9.052;2023-01-09T04:59:02;0.85;;;0.30;;
20320;SDS011;10318;47.674;9.052;2023-01-09T05:01:29;0.22;;;0.20;;
20320;SDS011;10318;47.674;9.052;2023-01-09T05:03:56;0.32;;;0.32;;
20320;SDS011;10318;47.674;9.052;2023-01-09T05:06:23;0.40;;;0.30;;
20320;SDS011;10318;47.674;9.052;2023-01-09T05:08:49;0.20;;;0.20;;
20320;SDS011;10318;47.674;9.052;2023-01-09T05:11:16;0.20;;;0.20;;
20320;SDS011;10318;47.674;9.052;2023-01-09T05:13:43;0.20;;;0.20;;
20320;SDS011;10318;47.674;9.052;2023-01-09T05:16:10;0.20;;;0.20;;
20320;SDS011;10318;47.674;9.052;2023-01-09T05:18:36;0.20;;;0.20;;
20320;SDS011;10318;47.674;9.052;2023-01-09T05:21:03;3.60;;;0.68;;
20320;SDS011;10318;47.674;9.052;2023-01-09T05:23:30;1.95;;;0.30;;
20320;SDS011;10318;47.674;9.052;2023-01-09T05:25:56;0.20;;;0.20;;
20320;SDS011;10318;47.674;9.052;2023-01-09T05:28:23;0.80;;;0.35;;
20320;SDS011;10318;47.674;9.052;2023-01-09T05:30:50;0.20;;;0.20;;
20320;SDS011;10318;47.674;9.052;2023-01-09T05:33:17;1.23;;;0.30;;
20320;SDS011;10318;47.674;9.052;2023-01-09T05:35:44;0.70;;;0.47;;
20320;SDS011;10318;47.674;9.052;2023-01-09T05:38:11;0.40;;;0.30;;
20320;SDS011;10318;47.674;9.052;2023-01-09T05:40:37;1.00;;;0.45;;
20320;SDS011;10318;47.674;9.052;2023-01-09T05:43:06;0.98;;;0.50;;
20320;SDS011;10318;47.674;9.052;2023-01-09T05:45:33;2.75;;;1.38;;
20320;SDS011;10318;47.674;9.052;2023-01-09T05:48:00;1.45;;;0.77;;
20320;SDS011;10318;47.674;9.052;2023-01-09T05:50:27;0.90;;;0.50;;
20320;SDS011;10318;47.674;9.052;2023-01-09T05:52:54;2.40;;;0.77;;
20320;SDS011;10318;47.674;9.052;2023-01-09T05:55:23;1.20;;;0.50;;
20320;SDS011;10318;47.674;9.052;2023-01-09T05:57:50;4.80;;;0.73;;
20320;SDS011;10318;47.674;9.052;2023-01-09T06:00:17;2.08;;;0.40;;
20320;SDS011;10318;47.674;9.052;2023-01-09T06:02:43;1.65;;;0.50;;
20320;SDS011;10318;47.674;9.052;2023-01-09T06:05:10;1.27;;;0.50;;
20320;SDS011;10318;47.674;9.052;2023-01-09T06:07:37;2.42;;;0.55;;
20320;SDS011;10318;47.674;9.052;2023-01-09T06:10:10;2.00;;;0.60;;
20320;SDS011;10318;47.674;9.052;2023-01-09T06:12:37;3.85;;;1.77;;
20320;SDS011;10318;47.674;9.052;2023-01-09T06:15:04;3.50;;;0.60;;
20320;SDS011;10318;47.674;9.052;2023-01-09T06:17:34;3.67;;;0.50;;
20320;SDS011;10318;47.674;9.052;2023-01-09T06:20:01;2.13;;;0.50;;
20320;SDS011;10318;47.674;9.052;2023-01-09T06:22:27;1.20;;;0.52;;
20320;SDS011;10318;47.674;9.052;2023-01-09T06:24:55;0.77;;;0.43;;
20320;SDS011;10318;47.674;9.052;2023-01-09T06:27:21;1.13;;;0.40;;
20320;SDS011;10318;47.674;9.052;2023-01-09T06:29:48;1.40;;;0.80;;
20320;SDS011;10318;47.674;9.052;2023-01-09T06:32:15;3.70;;;0.80;;
20320;SDS011;10318;47.674;9.052;2023-01-09T06:34:41;0.93;;;0.50;;
20320;SDS011;10318;47.674;9.052;2023-01-09T06:37:08;2.90;;;0.70;;
20320;SDS011;10318;47.674;9.052;2023-01-09T06:39:35;1.00;;;0.60;;
20320;SDS011;10318;47.674;9.052;2023-01-09T06:42:02;0.52;;;0.45;;
20320;SDS011;10318;47.674;9.052;2023-01-09T06:44:28;2.63;;;0.60;;
20320;SDS011;10318;47.674;9.052;2023-01-09T06:46:55;2.67;;;0.70;;
20320;SDS011;10318;47.674;9.052;2023-01-09T06:49:22;4.18;;;0.80;;
20320;SDS011;10318;47.674;9.052;2023-01-09T06:51:50;3.20;;;0.60;;
20320;SDS011;10318;47.674;9.052;2023-01-09T06:54:17;2.42;;;0.70;;
20320;SDS011;10318;47.674;9.052;2023-01-09T06:56:44;1.10;;;0.75;;
20320;SDS011;10318;47.674;9.052;2023-01-09T06:59:12;0.90;;;0.50;;
20320;SDS011;10318;47.674;9.052;2023-01-09T07:01:39;1.45;;;0.60;;
20320;SDS011;10318;47.674;9.052;2023-01-09T07:04:06;1.60;;;0.57;;
20320;SDS011;10318;47.674;9.052;2023-01-09T07:06:33;2.05;;;0.60;;
20320;SDS011;10318;47.674;9.052;2023-01-09T07:09:00;1.42;;;0.52;;
20320;SDS011;10318;47.674;9.052;2023-01-09T07:11:27;3.55;;;0.70;;
20320;SDS011;10318;47.674;9.052;2023-01-09T07:13:53;3.08;;;0.60;;
20320;SDS011;10318;47.674;9.052;2023-01-09T07:16:20;1.45;;;0.40;;
20320;SDS011;10318;47.674;9.052;2023-01-09T07:18:47;0.47;;;0.40;;
20320;SDS011;10318;47.674;9.052;2023-01-09T07:21:14;1.65;;;0.40;;
20320;SDS011;10318;47.674;9.052;2023-01-09T07:23:41;1.02;;;0.40;;
20320;SDS011;10318;47.674;9.052;2023-01-09T07:26:08;1.27;;;0.50;;
20320;SDS011;10318;47.674;9.052;2023-01-09T07:28:34;2.80;;;1.20;;
20320;SDS011;10318;47.674;9.052;2023-01-09T07:31:01;30.75;;;11.63;;
20320;SDS011;10318;47.674;9.052;2023-01-09T07:33:30;3.53;;;1.77;;
20320;SDS011;10318;47.674;9.052;2023-01-09T07:35:56;1.85;;;1.08;;
20320;SDS011;10318;47.674;9.052;2023-01-09T07:38:23;0.88;;;0.65;;
20320;SDS011;10318;47.674;9.052;2023-01-09T07:40:50;2.42;;;0.70;;
20320;SDS011;10318;47.674;9.052;2023-01-09T07:43:17;2.30;;;1.00;;
20320;SDS011;10318;47.674;9.052;2023-01-09T07:45:44;1.63;;;0.90;;
20320;SDS011;10318;47.674;9.052;2023-01-09T07:48:11;2.17;;;1.10;;
20320;SDS011;10318;47.674;9.052;2023-01-09T07:50:38;3.40;;;1.90;;
20320;SDS011;10318;47.674;9.052;2023-01-09T07:53:04;2.75;;;1.58;;
20320;SDS011;10318;47.674;9.052;2023-01-09T07:55:31;2.42;;;0.95;;
20320;SDS011;10318;47.674;9.052;2023-01-09T07:57:58;4.20;;;0.80;;
20320;SDS011;10318;47.674;9.052;2023-01-09T08:00:25;2.45;;;0.77;;
20320;SDS011;10318;47.674;9.052;2023-01-09T08:02:52;2.92;;;0.60;;
20320;SDS011;10318;47.674;9.052;2023-01-09T08:05:19;3.03;;;1.58;;
20320;SDS011;10318;47.674;9.052;2023-01-09T08:07:46;2.15;;;1.10;;
20320;SDS011;10318;47.674;9.052;2023-01-09T08:10:13;1.65;;;0.90;;
20320;SDS011;10318;47.674;9.052;2023-01-09T08:12:43;3.42;;;0.68;;
20320;SDS011;10318;47.674;9.052;2023-01-09T08:15:10;0.88;;;0.57;;
20320;SDS011;10318;47.674;9.052;2023-01-09T08:17:36;0.95;;;0.63;;
20320;SDS011;10318;47.674;9.052;2023-01-09T08:20:04;1.85;;;0.60;;
20320;SDS011;10318;47.674;9.052;2023-01-09T08:22:31;1.25;;;0.70;;
20320;SDS011;10318;47.674;9.052;2023-01-09T08:24:58;1.88;;;0.90;;
20320;SDS011;10318;47.674;9.052;2023-01-09T08:27:25;0.90;;;0.50;;
20320;SDS011;10318;47.674;9.052;2023-01-09T08:29:51;2.55;;;1.00;;
20320;SDS011;10318;47.674;9.052;2023-01-09T08:32:18;1.73;;;0.55;;
20320;SDS011;10318;47.674;9.052;2023-01-09T08:34:45;2.53;;;0.68;;
20320;SDS011;10318;47.674;9.052;2023-01-09T08:37:11;6.97;;;1.13;;
20320;SDS011;10318;47.674;9.052;2023-01-09T08:39:40;2.60;;;0.80;;
20320;SDS011;10318;47.674;9.052;2023-01-09T08:42:07;6.60;;;2.17;;
20320;SDS011;10318;47.674;9.052;2023-01-09T08:44:52;4.32;;;1.13;;
20320;SDS011;10318;47.674;9.052;2023-01-09T08:47:37;7.20;;;1.65;;
20320;SDS011;10318;47.674;9.052;2023-01-09T08:50:04;4.55;;;0.98;;
20320;SDS011;10318;47.674;9.052;2023-01-09T08:52:31;3.10;;;1.63;;
20320;SDS011;10318;47.674;9.052;2023-01-09T08:54:58;3.13;;;1.20;;
20320;SDS011;10318;47.674;9.052;2023-01-09T08:57:25;2.63;;;0.70;;
20320;SDS011;10318;47.674;9.052;2023-01-09T08:59:51;2.13;;;0.75;;
20320;SDS011;10318;47.674;9.052;2023-01-09T09:02:18;2.33;;;0.70;;
20320;SDS011;10318;47.674;9.052;2023-01-09T09:04:45;3.83;;;1.17;;
20320;SDS011;10318;47.674;9.052;2023-01-09T09:07:12;1.52;;;0.63;;
20320;SDS011;10318;47.674;9.052;2023-01-09T09:09:39;1.23;;;0.70;;
20320;SDS011;10318;47.674;9.052;2023-01-09T09:12:06;2.40;;;0.60;;
20320;SDS011;10318;47.674;9.052;2023-01-09T09:14:33;4.43;;;1.27;;
20320;SDS011;10318;47.674;9.052;2023-01-09T09:17:18;1.90;;;0.90;;
20320;SDS011;10318;47.674;9.052;2023-01-09T09:19:45;2.63;;;0.73;;
20320;SDS011;10318;47.674;9.052;2023-01-09T09:22:12;1.95;;;0.88;;
20320;SDS011;10318;47.674;9.052;2023-01-09T09:24:38;1.27;;;0.90;;
20320;SDS011;10318;47.674;9.052;2023-01-09T09:27:05;3.10;;;0.73;;
20320;SDS011;10318;47.674;9.052;2023-01-09T09:29:32;4.30;;;0.90;;
20320;SDS011;10318;47.674;9.052;2023-01-09T09:31:59;3.30;;;1.50;;
20320;SDS011;10318;47.674;9.052;2023-01-09T09:34:26;7.15;;;1.08;;
20320;SDS011;10318;47.674;9.052;2023-01-09T09:36:53;3.50;;;0.95;;
20320;SDS011;10318;47.674;9.052;2023-01-09T09:39:19;3.75;;;0.90;;
20320;SDS011;10318;47.674;9.052;2023-01-09T09:47:43;1.65;;;0.70;;
20320;SDS011;10318;47.674;9.052;2023-01-09T09:55:29;4.78;;;0.70;;
20320;SDS011;10318;47.674;9.052;2023-01-09T09:57:57;2.40;;;0.40;;
20320;SDS011;10318;47.674;9.052;2023-01-09T10:00:25;2.95;;;0.80;;
20320;SDS011;10318;47.674;9.052;2023-01-09T10:02:54;3.20;;;0.68;;
20320;SDS011;10318;47.674;9.052;2023-01-09T10:05:41;4.13;;;0.75;;
20320;SDS011;10318;47.674;9.052;2023-01-09T10:08:23;1.77;;;0.70;;
20320;SDS011;10318;47.674;9.052;2023-01-09T10:10:53;2.13;;;0.60;;
20320;SDS011;10318;47.674;9.052;2023-01-09T10:13:23;4.47;;;0.90;;
20320;SDS011;10318;47.674;9.052;2023-01-09T10:16:14;1.85;;;0.70;;
20320;SDS011;10318;47.674;9.052;2023-01-09T10:21:15;2.90;;;0.80;;
20320;SDS011;10318;47.674;9.052;2023-01-09T10:38:57;0.95;;;0.68;;
20320;SDS011;10318;47.674;9.052;2023-01-09T10:41:45;1.42;;;0.65;;
20320;SDS011;10318;47.674;9.052;2023-01-09T10:44:18;2.90;;;0.88;;
20320;SDS011;10318;47.674;9.052;2023-01-09T10:46:47;1.17;;;0.70;;
20320;SDS011;10318;47.674;9.052;2023-01-09T10:49:17;1.80;;;0.80;;
20320;SDS011;10318;47.674;9.052;2023-01-09T10:51:51;2.35;;;0.95;;
20320;SDS011;10318;47.674;9.052;2023-01-09T10:54:19;3.53;;;0.65;;
20320;SDS011;10318;47.674;9.052;2023-01-09T10:59:42;2.78;;;1.38;;
20320;SDS011;10318;47.674;9.052;2023-01-09T11:02:26;2.30;;;0.75;;
20320;SDS011;10318;47.674;9.052;2023-01-09T11:04:54;5.78;;;1.50;;
20320;SDS011;10318;47.674;9.052;2023-01-09T11:07:25;2.70;;;1.20;;
20320;SDS011;10318;47.674;9.052;2023-01-09T11:12:24;3.40;;;1.50;;
20320;SDS011;10318;47.674;9.052;2023-01-09T11:14:51;4.93;;;0.82;;
20320;SDS011;10318;47.674;9.052;2023-01-09T11:17:19;6.07;;;0.95;;
20320;SDS011;10318;47.674;9.052;2023-01-09T11:19:59;2.28;;;0.70;;
20320;SDS011;10318;47.674;9.052;2023-01-09T11:22:27;1.55;;;1.10;;
20320;SDS011;10318;47.674;9.052;2023-01-09T11:25:00;1.42;;;0.65;;
20320;SDS011;10318;47.674;9.052;2023-01-09T11:27:27;3.28;;;0.85;;
20320;SDS011;10318;47.674;9.052;2023-01-09T11:32:36;3.35;;;0.85;;
20320;SDS011;10318;47.674;9.052;2023-01-09T11:35:03;1.88;;;0.70;;
20320;SDS011;10318;47.674;9.052;2023-01-09T11:37:31;2.38;;;0.70;;
20320;SDS011;10318;47.674;9.052;2023-01-09T11:39:58;3.97;;;1.13;;
20320;SDS011;10318;47.674;9.052;2023-01-09T11:42:27;6.47;;;0.80;;
20320;SDS011;10318;47.674;9.052;2023-01-09T11:45:16;2.53;;;0.70;;
20320;SDS011;10318;47.674;9.052;2023-01-09T11:47:44;3.60;;;0.95;;
20320;SDS011;10318;47.674;9.052;2023-01-09T11:50:21;0.85;;;0.50;;
20320;SDS011;10318;47.674;9.052;2023-01-09T11:55:33;2.30;;;0.77;;
20320;SDS011;10318;47.674;9.052;2023-01-09T11:58:12;5.93;;;2.63;;
20320;SDS011;10318;47.674;9.052;2023-01-09T12:06:24;2.80;;;1.02;;
20320;SDS011;10318;47.674;9.052;2023-01-09T12:11:26;4.10;;;0.95;;
20320;SDS011;10318;47.674;9.052;2023-01-09T12:16:40;1.77;;;0.70;;
20320;SDS011;10318;47.674;9.052;2023-01-09T12:27:37;2.60;;;0.57;;
20320;SDS011;10318;47.674;9.052;2023-01-09T12:37:50;2.38;;;0.80;;
20320;SDS011;10318;47.674;9.052;2023-01-09T12:43:02;2.97;;;0.70;;
20320;SDS011;10318;47.674;9.052;2023-01-09T12:45:52;1.63;;;0.60;;
20320;SDS011;10318;47.674;9.052;2023-01-09T12:51:12;0.88;;;0.52;;
20320;SDS011;10318;47.674;9.052;2023-01-09T12:53:54;2.85;;;0.60;;
20320;SDS011;10318;47.674;9.052;2023-01-09T12:56:23;0.90;;;0.50;;
20320;SDS011;10318;47.674;9.052;2023-01-09T12:58:52;1.00;;;0.45;;
20320;SDS011;10318;47.674;9.052;2023-01-09T13:01:31;1.42;;;0.40;;
20320;SDS011;10318;47.674;9.052;2023-01-09T13:04:18;2.63;;;0.50;;
20320;SDS011;10318;47.674;9.052;2023-01-09T13:06:49;2.85;;;0.60;;
20320;SDS011;10318;47.674;9.052;2023-01-09T13:09:19;1.33;;;0.80;;
20320;SDS011;10318;47.674;9.052;2023-01-09T13:12:09;0.70;;;0.40;;
20320;SDS011;10318;47.674;9.052;2023-01-09T13:17:09;0.77;;;0.40;;
20320;SDS011;10318;47.674;9.052;2023-01-09T13:19:39;0.63;;;0.47;;
20320;SDS011;10318;47.674;9.052;2023-01-09T13:22:06;0.98;;;0.50;;
20320;SDS011;10318;47.674;9.052;2023-01-09T13:24:34;0.90;;;0.40;;
20320;SDS011;10318;47.674;9.052;2023-01-09T13:27:08;0.52;;;0.40;;
20320;SDS011;10318;47.674;9.052;2023-01-09T13:29:37;2.97;;;0.60;;
20320;SDS011;10318;47.674;9.052;2023-01-09T13:34:38;1.88;;;0.60;;
20320;SDS011;10318;47.674;9.052;2023-01-09T13:37:06;1.00;;;0.40;;
20320;SDS011;10318;47.674;9.052;2023-01-09T13:39:45;1.77;;;0.50;;
20320;SDS011;10318;47.674;9.052;2023-01-09T13:42:19;1.95;;;0.60;;
20320;SDS011;10318;47.674;9.052;2023-01-09T13:45:09;2.35;;;0.50;;
20320;SDS011;10318;47.674;9.052;2023-01-09T13:47:37;0.98;;;0.40;;
20320;SDS011;10318;47.674;9.052;2023-01-09T14:02:54;0.80;;;0.50;;
20320;SDS011;10318;47.674;9.052;2023-01-09T14:08:04;0.52;;;0.45;;
20320;SDS011;10318;47.674;9.052;2023-01-09T14:10:36;3.38;;;0.80;;
20320;SDS011;10318;47.674;9.052;2023-01-09T14:13:07;1.15;;;0.70;;
20320;SDS011;10318;47.674;9.052;2023-01-09T14:15:39;3.10;;;1.17;;
20320;SDS011;10318;47.674;9.052;2023-01-09T14:18:16;1.42;;;0.57;;
20320;SDS011;10318;47.674;9.052;2023-01-09T14:20:45;1.45;;;0.90;;
20320;SDS011;10318;47.674;9.052;2023-01-09T14:23:48;1.08;;;0.50;;
20320;SDS011;10318;47.674;9.052;2023-01-09T14:26:23;2.50;;;0.85;;
20320;SDS011;10318;47.674;9.052;2023-01-09T14:28:50;2.45;;;0.70;;
20320;SDS011;10318;47.674;9.052;2023-01-09T14:31:30;2.30;;;0.60;;
20320;SDS011;10318;47.674;9.052;2023-01-09T14:34:23;1.50;;;0.50;;
20320;SDS011;10318;47.674;9.052;2023-01-09T14:36:57;3.00;;;0.60;;
20320;SDS011;10318;47.674;9.052;2023-01-09T14:39:25;1.92;;;0.52;;
20320;SDS011;10318;47.674;9.052;2023-01-09T14:41:57;3.72;;;0.52;;
20320;SDS011;10318;47.674;9.052;2023-01-09T14:49:57;2.17;;;0.70;;
20320;SDS011;10318;47.674;9.052;2023-01-09T14:52:31;2.22;;;0.80;;
20320;SDS011;10318;47.674;9.052;2023-01-09T14:55:00;2.38;;;0.80;;
20320;SDS011;10318;47.674;9.052;2023-01-09T14:57:28;3.70;;;0.70;;
20320;SDS011;10318;47.674;9.052;2023-01-09T14:59:56;2.30;;;0.68;;
20320;SDS011;10318;47.674;9.052;2023-01-09T15:02:22;1.65;;;0.63;;
20320;SDS011;10318;47.674;9.052;2023-01-09T15:04:49;2.55;;;0.93;;
20320;SDS011;10318;47.674;9.052;2023-01-09T15:07:19;2.95;;;0.73;;
20320;SDS011;10318;47.674;9.052;2023-01-09T15:09:46;1.17;;;0.75;;
20320;SDS011;10318;47.674;9.052;2023-01-09T15:12:18;2.45;;;0.70;;
20320;SDS011;10318;47.674;9.052;2023-01-09T15:14:46;2.03;;;0.50;;
20320;SDS011;10318;47.674;9.052;2023-01-09T15:17:20;1.60;;;0.60;;
20320;SDS011;10318;47.674;9.052;2023-01-09T15:19:46;1.75;;;0.60;;
20320;SDS011;10318;47.674;9.052;2023-01-09T15:27:53;2.72;;;0.70;;
20320;SDS011;10318;47.674;9.052;2023-01-09T15:30:26;1.85;;;0.80;;
20320;SDS011;10318;47.674;9.052;2023-01-09T15:33:00;4.72;;;0.73;;
20320;SDS011;10318;47.674;9.052;2023-01-09T15:35:28;1.75;;;0.73;;
20320;SDS011;10318;47.674;9.052;2023-01-09T15:37:55;1.23;;;0.60;;
20320;SDS011;10318;47.674;9.052;2023-01-09T15:40:23;2.65;;;0.52;;
20320;SDS011;10318;47.674;9.052;2023-01-09T15:42:53;3.15;;;0.60;;
20320;SDS011;10318;47.674;9.052;2023-01-09T15:45:32;1.90;;;0.85;;
20320;SDS011;10318;47.674;9.052;2023-01-09T15:48:15;1.50;;;0.50;;
20320;SDS011;10318;47.674;9.052;2023-01-09T15:50:45;2.75;;;0.80;;
20320;SDS011;10318;47.674;9.052;2023-01-09T15:53:13;5.63;;;1.08;;
20320;SDS011;10318;47.674;9.052;2023-01-09T15:55:41;2.45;;;1.00;;
20320;SDS011;10318;47.674;9.052;2023-01-09T15:58:27;4.53;;;0.90;;
20320;SDS011;10318;47.674;9.052;2023-01-09T16:00:55;3.30;;;0.88;;
20320;SDS011;10318;47.674;9.052;2023-01-09T16:03:23;4.90;;;0.60;;
20320;SDS011;10318;47.674;9.052;2023-01-09T16:05:52;1.27;;;0.50;;
20320;SDS011;10318;47.674;9.052;2023-01-09T16:08:21;0.70;;;0.43;;
20320;SDS011;10318;47.674;9.052;2023-01-09T16:10:50;0.75;;;0.38;;
20320;SDS011;10318;47.674;9.052;2023-01-09T16:13:19;0.98;;;0.50;;
20320;SDS011;10318;47.674;9.052;2023-01-09T16:15:46;0.93;;;0.40;;
20320;SDS011;10318;47.674;9.052;2023-01-09T16:20:43;0.95;;;0.40;;
20320;SDS011;10318;47.674;9.052;2023-01-09T16:23:18;1.30;;;0.60;;
20320;SDS011;10318;47.674;9.052;2023-01-09T16:25:45;1.30;;;0.43;;
20320;SDS011;10318;47.674;9.052;2023-01-09T16:28:20;1.13;;;0.40;;
20320;SDS011;10318;47.674;9.052;2023-01-09T16:30:52;0.47;;;0.47;;
20320;SDS011;10318;47.674;9.052;2023-01-09T16:33:21;0.95;;;0.68;;
20320;SDS011;10318;47.674;9.052;2023-01-09T16:35:48;1.05;;;0.70;;
20320;SDS011;10318;47.674;9.052;2023-01-09T16:38:15;1.42;;;0.55;;
20320;SDS011;10318;47.674;9.052;2023-01-09T16:43:38;1.00;;;0.52;;
20320;SDS011;10318;47.674;9.052;2023-01-09T16:46:04;2.20;;;0.50;;
20320;SDS011;10318;47.674;9.052;2023-01-09T16:48:31;1.60;;;0.68;;
20320;SDS011;10318;47.674;9.052;2023-01-09T16:50:59;1.50;;;0.57;;
20320;SDS011;10318;47.674;9.052;2023-01-09T16:53:26;1.33;;;0.82;;
20320;SDS011;10318;47.674;9.052;2023-01-09T16:55:53;2.60;;;0.80;;
20320;SDS011;10318;47.674;9.052;2023-01-09T16:58:23;2.35;;;1.27;;
20320;SDS011;10318;47.674;9.052;2023-01-09T17:00:50;3.58;;;1.58;;
20320;SDS011;10318;47.674;9.052;2023-01-09T17:03:17;1.92;;;0.80;;
20320;SDS011;10318;47.674;9.052;2023-01-09T17:05:49;1.17;;;0.90;;
20320;SDS011;10318;47.674;9.052;2023-01-09T17:08:26;3.28;;;0.80;;
20320;SDS011;10318;47.674;9.052;2023-01-09T17:10:54;1.58;;;0.88;;
20320;SDS011;10318;47.674;9.052;2023-01-09T17:13:21;1.20;;;0.60;;
20320;SDS011;10318;47.674;9.052;2023-01-09T17:15:48;0.80;;;0.50;;
20320;SDS011;10318;47.674;9.052;2023-01-09T17:18:15;0.93;;;0.50;;
20320;SDS011;10318;47.674;9.052;2023-01-09T17:20:43;3.17;;;0.70;;